Time;durP1;ratioP1;P1;durP2;ratioP2;P2;SDS_P1;SDS_P2;PMS_P1;PMS_P2;Temp;Humidity;BMP_temperature;BMP_pressure;BME280_temperature;BME280_humidity;BME280_pressure;Samples;Min_cycle;Max_cycle;Signal;HPM_P1;HPM_P2
2023/01/26 00:01:23;;;;;;;3.22;1.55;;;3.80;99.90;;;;;;5006374;28;20219;-63
2023/01/26 00:03:51;;;;;;;2.38;1.65;;;4.00;99.90;;;;;;5011967;28;20204;-63
2023/01/26 00:06:21;;;;;;;1.58;1.48;;;4.00;99.90;;;;;;5011969;28;20676;-63
2023/01/26 00:08:50;;;;;;;1.45;1.25;;;3.80;99.90;;;;;;4993670;28;20307;-63
2023/01/26 00:11:23;;;;;;;2.70;1.95;;;3.80;99.90;;;;;;4992714;28;20208;-62
2023/01/26 00:13:51;;;;;;;1.65;1.20;;;3.80;99.90;;;;;;4992306;28;20241;-62
2023/01/26 00:16:20;;;;;;;2.55;1.85;;;3.90;99.90;;;;;;4992190;28;20190;-62
2023/01/26 00:18:48;;;;;;;1.63;1.30;;;4.00;99.90;;;;;;5004986;28;20210;-62
2023/01/26 00:21:19;;;;;;;1.80;1.60;;;4.10;99.90;;;;;;5010917;28;20204;-62
2023/01/26 00:23:48;;;;;;;2.25;1.17;;;4.00;99.90;;;;;;5012085;28;20197;-62
2023/01/26 00:26:18;;;;;;;2.90;1.55;;;4.10;99.90;;;;;;4997660;28;20297;-62
2023/01/26 00:28:46;;;;;;;1.40;1.20;;;3.90;99.90;;;;;;4999502;28;20209;-62
2023/01/26 00:31:16;;;;;;;1.85;1.30;;;3.90;99.90;;;;;;4991751;28;20251;-62
2023/01/26 00:33:46;;;;;;;1.42;1.10;;;3.90;99.90;;;;;;5000517;28;20882;-62
2023/01/26 00:36:14;;;;;;;1.75;1.50;;;3.90;99.90;;;;;;5011581;28;20568;-63
2023/01/26 00:38:42;;;;;;;1.20;1.10;;;3.80;99.90;;;;;;5011398;28;20278;-62
2023/01/26 00:42:05;;;;;;;2.13;1.50;;;3.70;99.90;;;;;;5011316;28;20285;-62
2023/01/26 00:43:59;;;;;;;3.70;1.83;;;3.70;99.90;;;;;;4992253;28;20204;-62
2023/01/26 00:46:27;;;;;;;2.30;1.90;;;3.80;99.90;;;;;;4992418;28;20625;-62
2023/01/26 00:48:56;;;;;;;3.65;1.70;;;3.60;99.90;;;;;;4992365;28;20372;-62
2023/01/26 00:51:24;;;;;;;3.20;1.90;;;3.60;99.90;;;;;;4989914;28;20202;-62
2023/01/26 00:53:52;;;;;;;3.92;1.92;;;3.50;99.90;;;;;;4972171;28;20203;-62
2023/01/26 00:56:20;;;;;;;2.00;1.40;;;3.50;99.90;;;;;;4980190;28;20673;-62
2023/01/26 00:58:48;;;;;;;3.97;3.00;;;3.30;99.90;;;;;;4978415;28;20213;-62
2023/01/26 01:01:16;;;;;;;3.08;2.00;;;3.20;99.90;;;;;;4971263;28;20203;-62
2023/01/26 01:03:43;;;;;;;2.45;1.73;;;3.00;99.90;;;;;;4979750;28;20982;-62
2023/01/26 01:06:13;;;;;;;2.33;1.70;;;2.90;99.90;;;;;;4993721;28;20231;-62
2023/01/26 01:08:40;;;;;;;2.20;1.52;;;2.80;99.90;;;;;;4994466;28;20216;-62
2023/01/26 01:11:11;;;;;;;2.42;1.50;;;2.80;99.90;;;;;;4993080;28;20221;-63
2023/01/26 01:13:39;;;;;;;1.17;1.08;;;2.80;99.90;;;;;;4975628;28;20298;-62
2023/01/26 01:16:09;;;;;;;2.00;1.80;;;2.90;99.90;;;;;;4975683;28;20207;-62
2023/01/26 01:18:37;;;;;;;2.70;2.42;;;2.80;99.90;;;;;;4976665;28;20208;-62
2023/01/26 01:21:07;;;;;;;1.60;1.50;;;2.90;99.90;;;;;;4976457;28;20569;-63
2023/01/26 01:23:36;;;;;;;3.10;1.63;;;2.90;99.90;;;;;;4975695;28;20589;-62
2023/01/26 01:26:05;;;;;;;2.83;1.48;;;2.60;99.90;;;;;;4988640;28;20282;-62
2023/01/26 01:28:34;;;;;;;1.40;1.30;;;2.60;99.90;;;;;;4975847;28;20203;-62
2023/01/26 01:31:04;;;;;;;1.67;1.20;;;2.40;99.90;;;;;;4974793;28;20218;-62
2023/01/26 01:33:32;;;;;;;1.98;1.27;;;2.30;99.90;;;;;;4981568;28;20568;-62
2023/01/26 01:36:02;;;;;;;3.08;1.77;;;2.30;99.90;;;;;;4993901;28;20207;-62
2023/01/26 01:38:30;;;;;;;1.05;0.95;;;2.50;99.90;;;;;;4986614;28;20206;-62
2023/01/26 01:40:59;;;;;;;1.25;1.13;;;2.70;99.90;;;;;;4993479;28;20237;-62
2023/01/26 01:43:28;;;;;;;2.55;1.10;;;2.80;99.90;;;;;;5020912;22;20238;-63
2023/01/26 01:45:56;;;;;;;3.10;1.70;;;2.90;99.90;;;;;;5000242;28;20205;-63
2023/01/26 01:48:30;;;;;;;1.10;1.00;;;3.10;99.90;;;;;;4994314;28;20202;-63
2023/01/26 01:51:04;;;;;;;3.13;1.13;;;3.10;99.90;;;;;;4993903;28;20261;-63
2023/01/26 01:53:37;;;;;;;1.85;1.67;;;3.10;99.90;;;;;;4994377;28;20246;-63
2023/01/26 01:56:12;;;;;;;1.00;0.90;;;3.10;99.90;;;;;;4987499;28;20286;-63
2023/01/26 01:58:43;;;;;;;1.10;1.00;;;3.30;99.90;;;;;;4986017;28;20198;-62
2023/01/26 02:01:11;;;;;;;1.40;0.75;;;3.30;99.90;;;;;;4993765;28;20212;-66
2023/01/26 02:03:41;;;;;;;0.73;0.70;;;3.40;99.90;;;;;;4993447;28;20711;-66
2023/01/26 02:06:13;;;;;;;1.85;0.90;;;3.50;99.90;;;;;;4974723;28;20668;-66
2023/01/26 02:08:45;;;;;;;0.90;0.80;;;3.50;99.90;;;;;;4974631;28;20227;-66
2023/01/26 02:11:16;;;;;;;1.00;0.80;;;3.40;99.90;;;;;;4973707;28;20306;-66
2023/01/26 02:13:47;;;;;;;1.30;0.90;;;3.20;99.90;;;;;;4989059;28;20305;-66
2023/01/26 02:16:15;;;;;;;1.00;0.90;;;3.30;99.90;;;;;;4993613;28;20202;-66
2023/01/26 02:18:44;;;;;;;1.25;0.77;;;3.20;99.90;;;;;;4973584;28;20196;-66
2023/01/26 02:21:16;;;;;;;1.10;0.88;;;3.30;99.90;;;;;;4974014;28;20198;-66
2023/01/26 02:23:56;;;;;;;0.75;0.70;;;3.50;99.90;;;;;;4974407;28;20261;-66
2023/01/26 02:26:28;;;;;;;1.00;0.60;;;3.00;99.90;;;;;;4990463;28;20214;-66
2023/01/26 02:28:56;;;;;;;0.65;0.50;;;3.10;99.90;;;;;;4993714;28;20225;-66
2023/01/26 02:31:25;;;;;;;0.80;0.70;;;3.10;99.90;;;;;;4992831;28;20297;-66
2023/01/26 02:33:52;;;;;;;0.65;0.60;;;2.90;99.90;;;;;;4993566;28;20273;-66
2023/01/26 02:36:23;;;;;;;0.80;0.50;;;3.00;99.90;;;;;;4994271;28;20201;-66
2023/01/26 02:39:13;;;;;;;2.42;1.70;;;2.90;99.90;;;;;;4995004;28;20292;-65
2023/01/26 02:44:29;;;;;;;1.60;0.70;;;3.10;99.90;;;;;;4974502;28;20234;-66
2023/01/26 02:46:57;;;;;;;0.90;0.60;;;3.20;99.90;;;;;;4975460;28;20202;-65
2023/01/26 02:52:10;;;;;;;1.27;0.80;;;3.40;99.90;;;;;;4973720;28;20266;-63
2023/01/26 02:57:25;;;;;;;1.27;1.00;;;3.40;99.90;;;;;;4965810;28;20210;-62
2023/01/26 02:59:53;;;;;;;0.70;0.40;;;3.50;99.90;;;;;;4972628;28;20203;-62
2023/01/26 03:02:21;;;;;;;1.35;0.93;;;3.50;99.90;;;;;;4973453;28;20214;-63
2023/01/26 03:04:49;;;;;;;0.60;0.50;;;3.50;99.90;;;;;;4973636;28;20208;-62
2023/01/26 03:07:16;;;;;;;0.80;0.60;;;3.60;99.90;;;;;;4973481;28;20205;-63
2023/01/26 03:09:44;;;;;;;1.27;0.70;;;3.70;99.90;;;;;;4953376;29;20733;-63
2023/01/26 03:12:12;;;;;;;0.73;0.50;;;3.70;99.90;;;;;;4953939;28;20266;-63
2023/01/26 03:14:42;;;;;;;0.90;0.50;;;3.70;99.90;;;;;;4969681;28;20293;-63
2023/01/26 03:17:09;;;;;;;0.70;0.60;;;3.70;99.90;;;;;;4973598;28;20207;-64
2023/01/26 03:27:54;;;;;;;0.90;0.70;;;3.70;99.90;;;;;;4976815;28;20207;-64
2023/01/26 03:30:23;;;;;;;0.80;0.60;;;3.80;99.90;;;;;;4965280;28;20727;-64
2023/01/26 03:32:51;;;;;;;1.05;0.70;;;3.80;99.90;;;;;;4973110;28;20726;-64
2023/01/26 03:35:21;;;;;;;0.85;0.50;;;3.80;99.90;;;;;;4973249;28;20664;-64
2023/01/26 03:37:53;;;;;;;1.05;0.95;;;3.80;99.90;;;;;;4973538;28;20198;-65
2023/01/26 03:56:58;;;;;;;0.80;0.80;;;3.80;99.90;;;;;;4986807;28;20213;-64
2023/01/26 03:59:37;;;;;;;0.82;0.70;;;3.80;99.90;;;;;;4991225;28;20289;-65
2023/01/26 04:10:26;;;;;;;0.80;0.60;;;3.00;99.90;;;;;;4991292;28;20202;-65
2023/01/26 04:21:27;;;;;;;1.23;0.93;;;3.40;99.90;;;;;;4991061;28;20202;-64
2023/01/26 04:23:57;;;;;;;1.02;0.88;;;3.40;99.90;;;;;;4991936;28;20226;-64
2023/01/26 04:26:26;;;;;;;0.93;0.80;;;3.50;99.90;;;;;;4985146;28;20203;-64
2023/01/26 04:28:54;;;;;;;1.25;0.88;;;3.50;99.90;;;;;;4986959;28;20195;-65
2023/01/26 04:31:21;;;;;;;1.55;1.40;;;3.60;99.90;;;;;;4983049;28;20314;-65
2023/01/26 04:33:51;;;;;;;1.08;0.98;;;3.70;99.90;;;;;;4991039;28;20226;-65
2023/01/26 04:36:18;;;;;;;1.08;0.90;;;3.70;99.90;;;;;;4991201;28;20209;-65
2023/01/26 04:38:46;;;;;;;0.95;0.60;;;3.70;99.90;;;;;;4991668;28;20667;-65
2023/01/26 04:41:14;;;;;;;3.75;1.20;;;3.70;99.90;;;;;;4993140;28;20668;-65
2023/01/26 04:43:42;;;;;;;1.70;1.30;;;3.60;99.90;;;;;;4995096;28;20239;-65
2023/01/26 04:46:10;;;;;;;1.75;1.60;;;3.60;99.90;;;;;;4995600;28;20226;-65
2023/01/26 04:48:38;;;;;;;1.27;0.77;;;3.60;99.90;;;;;;4995698;28;20202;-65
2023/01/26 04:51:11;;;;;;;1.10;0.80;;;3.60;99.90;;;;;;4994351;28;20222;-65
2023/01/26 04:53:39;;;;;;;1.80;1.00;;;3.60;99.90;;;;;;4995566;28;20290;-64
2023/01/26 04:56:08;;;;;;;1.70;0.82;;;3.60;99.90;;;;;;4995550;28;20246;-64
2023/01/26 04:58:36;;;;;;;1.45;1.35;;;3.60;99.90;;;;;;4995148;28;20194;-65
2023/01/26 05:01:04;;;;;;;2.47;1.10;;;3.70;99.90;;;;;;4994681;28;20198;-65
2023/01/26 05:03:32;;;;;;;1.30;0.90;;;3.70;99.90;;;;;;4995254;28;20221;-66
2023/01/26 05:06:00;;;;;;;1.38;1.10;;;3.70;99.90;;;;;;4995438;28;20216;-65
2023/01/26 05:08:29;;;;;;;1.00;0.90;;;3.60;99.90;;;;;;4995186;28;20206;-65
2023/01/26 05:10:57;;;;;;;1.20;0.80;;;3.40;99.90;;;;;;4994415;28;20711;-65
2023/01/26 05:13:25;;;;;;;1.70;1.10;;;3.50;99.90;;;;;;4994767;28;20286;-65
2023/01/26 05:15:53;;;;;;;1.20;1.08;;;3.50;99.90;;;;;;4995234;28;20285;-65
2023/01/26 05:18:20;;;;;;;1.48;1.38;;;3.70;99.90;;;;;;4995089;28;20638;-65
2023/01/26 05:20:48;;;;;;;1.70;0.82;;;3.80;99.90;;;;;;4988505;28;20696;-65
2023/01/26 05:23:16;;;;;;;2.72;1.10;;;4.00;99.90;;;;;;4976194;28;20233;-64
2023/01/26 05:25:45;;;;;;;1.60;0.95;;;4.10;99.90;;;;;;4975570;28;20277;-64
2023/01/26 05:28:13;;;;;;;2.25;2.05;;;4.10;99.90;;;;;;4982276;28;20603;-63
2023/01/26 05:30:41;;;;;;;2.70;1.20;;;4.10;99.90;;;;;;4985221;28;20199;-64
2023/01/26 05:33:10;;;;;;;2.33;1.10;;;4.10;99.90;;;;;;4974814;28;20223;-66
2023/01/26 05:35:38;;;;;;;1.20;1.10;;;4.10;99.90;;;;;;4985053;28;20290;-65
2023/01/26 05:38:06;;;;;;;2.30;1.30;;;3.90;99.90;;;;;;4988195;28;20628;-65
2023/01/26 05:40:34;;;;;;;1.27;1.17;;;3.60;99.90;;;;;;4993066;28;20225;-66
2023/01/26 05:43:03;;;;;;;1.33;1.15;;;3.40;99.90;;;;;;4993245;28;20238;-66
2023/01/26 05:45:31;;;;;;;1.90;1.20;;;2.80;99.90;;;;;;4993512;28;20281;-62
2023/01/26 05:47:59;;;;;;;1.20;1.10;;;2.30;99.90;;;;;;4993932;28;20197;-65
2023/01/26 05:50:28;;;;;;;1.85;1.25;;;2.10;99.90;;;;;;4992597;28;20210;-64
2023/01/26 05:52:56;;;;;;;1.50;1.17;;;1.70;99.90;;;;;;4991999;28;20241;-64
2023/01/26 05:55:23;;;;;;;1.63;1.52;;;1.30;99.90;;;;;;4993481;28;20214;-63
2023/01/26 05:57:51;;;;;;;1.50;1.00;;;1.20;99.90;;;;;;4993306;28;20206;-63
2023/01/26 06:00:21;;;;;;;1.35;1.13;;;0.90;99.90;;;;;;4983393;28;20211;-63
2023/01/26 06:02:49;;;;;;;0.82;0.70;;;0.90;99.90;;;;;;4989197;28;20703;-63
2023/01/26 06:05:17;;;;;;;1.55;0.95;;;0.80;99.90;;;;;;4992807;28;20206;-63
2023/01/26 06:07:45;;;;;;;1.00;0.90;;;0.70;99.90;;;;;;4993268;28;20273;-63
2023/01/26 06:10:13;;;;;;;1.10;0.93;;;0.60;99.90;;;;;;4987113;28;20305;-66
2023/01/26 06:12:41;;;;;;;0.80;0.80;;;0.60;99.90;;;;;;4985543;28;20313;-63
2023/01/26 06:15:11;;;;;;;1.92;1.10;;;0.50;99.90;;;;;;4985402;28;20570;-63
2023/01/26 06:17:40;;;;;;;0.77;0.65;;;0.50;99.90;;;;;;4993032;28;20189;-63
2023/01/26 06:20:09;;;;;;;1.25;1.05;;;0.40;99.90;;;;;;4990807;28;20284;-64
2023/01/26 06:22:38;;;;;;;1.20;1.00;;;0.30;99.90;;;;;;4993022;28;20233;-63
2023/01/26 06:25:06;;;;;;;1.77;1.38;;;0.20;99.90;;;;;;4992463;28;20194;-63
2023/01/26 06:27:34;;;;;;;1.25;1.15;;;0.10;99.90;;;;;;4983942;28;20198;-64
2023/01/26 06:30:04;;;;;;;1.23;0.77;;;0.10;99.90;;;;;;4985296;28;20257;-65
2023/01/26 06:32:32;;;;;;;1.33;1.15;;;0.10;99.90;;;;;;4985849;28;20777;-63
2023/01/26 06:35:02;;;;;;;1.70;1.30;;;0.10;99.90;;;;;;4992638;28;20647;-63
2023/01/26 06:37:29;;;;;;;0.90;0.80;;;0.10;99.90;;;;;;4992488;28;20699;-65
2023/01/26 06:39:57;;;;;;;1.45;1.30;;;0.10;99.90;;;;;;4991387;28;20204;-65
2023/01/26 06:42:25;;;;;;;2.78;1.75;;;0.10;99.90;;;;;;4992450;28;20233;-64
2023/01/26 06:44:53;;;;;;;1.10;1.00;;;0.10;99.90;;;;;;4992473;28;20687;-63
2023/01/26 06:47:21;;;;;;;1.20;1.02;;;0.10;99.90;;;;;;4992451;28;20288;-63
2023/01/26 06:49:49;;;;;;;1.25;0.82;;;0.10;99.90;;;;;;4991611;28;20616;-64
2023/01/26 06:52:26;;;;;;;1.52;1.00;;;0.10;99.90;;;;;;4992383;28;20228;-67
2023/01/26 06:54:55;;;;;;;1.05;0.90;;;0.10;99.90;;;;;;4992279;28;20757;-65
2023/01/26 06:57:23;;;;;;;0.80;0.73;;;3.00;99.90;;;;;;4977046;28;20623;-65
2023/01/26 06:59:51;;;;;;;1.38;1.27;;;5.70;99.90;;;;;;4991213;28;20290;-66
2023/01/26 07:02:20;;;;;;;2.15;1.38;;;6.80;99.90;;;;;;4986213;28;20221;-65
2023/01/26 07:04:49;;;;;;;1.35;1.08;;;7.30;99.90;;;;;;4991706;28;20211;-64
2023/01/26 07:07:17;;;;;;;1.08;0.90;;;7.30;99.90;;;;;;4991705;28;20200;-64
2023/01/26 07:09:46;;;;;;;1.30;1.05;;;5.90;99.90;;;;;;4991403;28;20199;-64
2023/01/26 07:12:14;;;;;;;1.45;1.33;;;4.50;99.90;;;;;;4991886;28;20258;-65
2023/01/26 07:14:43;;;;;;;1.35;1.25;;;3.70;99.90;;;;;;4991738;28;20203;-65
2023/01/26 07:17:11;;;;;;;2.30;1.08;;;3.10;99.90;;;;;;4992223;28;20290;-64
2023/01/26 07:19:39;;;;;;;1.52;1.25;;;2.50;99.90;;;;;;4991708;28;20230;-65
2023/01/26 07:22:07;;;;;;;1.25;1.00;;;1.90;99.90;;;;;;4986082;28;20636;-64
2023/01/26 07:24:35;;;;;;;1.15;1.05;;;1.60;99.90;;;;;;4991994;28;20645;-64
2023/01/26 07:27:04;;;;;;;1.30;1.20;;;1.50;99.90;;;;;;4991913;28;20681;-64
2023/01/26 07:29:32;;;;;;;2.97;0.80;;;1.30;99.90;;;;;;4991171;28;20265;-65
2023/01/26 07:32:00;;;;;;;1.55;1.10;;;1.10;99.90;;;;;;4991820;28;20289;-64
2023/01/26 07:34:27;;;;;;;2.15;1.00;;;0.90;99.90;;;;;;4992509;28;20219;-64
2023/01/26 07:36:55;;;;;;;1.52;1.20;;;0.90;99.90;;;;;;4992189;28;20193;-65
2023/01/26 07:39:23;;;;;;;2.45;1.58;;;0.70;99.90;;;;;;4992414;28;20281;-65
2023/01/26 07:41:51;;;;;;;1.60;1.27;;;0.60;99.90;;;;;;4991519;28;20221;-64
2023/01/26 07:44:20;;;;;;;1.15;1.00;;;0.50;99.90;;;;;;4993298;28;20273;-65
2023/01/26 07:46:48;;;;;;;1.23;1.13;;;0.50;99.90;;;;;;4992578;28;20351;-65
2023/01/26 07:49:16;;;;;;;2.03;1.85;;;0.50;99.90;;;;;;4992301;28;20240;-65
2023/01/26 07:51:44;;;;;;;1.77;1.02;;;0.50;99.90;;;;;;4991351;28;20301;-65
2023/01/26 07:54:12;;;;;;;2.92;1.65;;;0.50;99.90;;;;;;4992244;28;20244;-65
2023/01/26 07:56:40;;;;;;;1.83;1.55;;;0.50;99.90;;;;;;4992271;28;20280;-65
2023/01/26 07:59:10;;;;;;;1.10;1.00;;;0.60;99.90;;;;;;4991951;28;20205;-65
2023/01/26 08:01:40;;;;;;;1.45;1.35;;;0.40;99.90;;;;;;4983373;28;20241;-65
2023/01/26 08:04:08;;;;;;;2.05;1.83;;;0.40;99.90;;;;;;4992086;28;20707;-65
2023/01/26 08:06:35;;;;;;;1.83;1.38;;;0.40;99.90;;;;;;4992134;28;20678;-65
2023/01/26 08:09:03;;;;;;;3.58;1.92;;;0.30;99.90;;;;;;4991862;28;20656;-65
2023/01/26 08:11:31;;;;;;;1.25;1.15;;;0.40;99.90;;;;;;4990932;28;20558;-65
2023/01/26 08:13:59;;;;;;;1.05;0.95;;;0.40;99.90;;;;;;4991792;28;20245;-65
2023/01/26 08:16:27;;;;;;;0.75;0.75;;;0.40;99.90;;;;;;4991291;28;20194;-65
2023/01/26 08:18:56;;;;;;;1.55;1.20;;;0.40;99.90;;;;;;4991954;28;20198;-66
2023/01/26 08:21:24;;;;;;;0.85;0.75;;;0.30;99.90;;;;;;4990647;28;20288;-65
2023/01/26 08:23:52;;;;;;;1.58;1.40;;;0.40;99.90;;;;;;4991861;28;20214;-65
2023/01/26 08:26:21;;;;;;;1.63;1.52;;;0.50;99.90;;;;;;4991763;28;20698;-65
2023/01/26 08:28:49;;;;;;;1.20;1.10;;;0.40;99.90;;;;;;4991472;28;20209;-65
2023/01/26 08:31:19;;;;;;;1.75;1.65;;;0.50;99.90;;;;;;4990715;28;20281;-66
2023/01/26 08:33:49;;;;;;;1.33;1.17;;;0.50;99.90;;;;;;4992105;28;20222;-65
2023/01/26 08:36:19;;;;;;;3.50;1.80;;;0.50;99.90;;;;;;4991802;28;20212;-65
2023/01/26 08:38:50;;;;;;;1.67;1.23;;;0.40;99.90;;;;;;4991754;28;20198;-65
2023/01/26 08:41:18;;;;;;;1.90;1.65;;;0.40;99.90;;;;;;4990631;28;20300;-66
2023/01/26 08:43:46;;;;;;;1.95;1.30;;;0.50;99.90;;;;;;4991146;28;20285;-66
2023/01/26 08:46:15;;;;;;;2.60;1.70;;;0.50;99.90;;;;;;4991651;28;20217;-64
2023/01/26 08:48:43;;;;;;;4.07;2.80;;;0.40;99.90;;;;;;4991577;28;20206;-64
2023/01/26 08:51:10;;;;;;;5.03;3.83;;;0.30;99.90;;;;;;4990829;28;20624;-66
2023/01/26 08:53:40;;;;;;;4.22;3.30;;;0.40;99.90;;;;;;4991434;28;20232;-64
2023/01/26 08:56:10;;;;;;;1.63;1.42;;;0.40;99.90;;;;;;4991106;28;20726;-64
2023/01/26 08:58:38;;;;;;;2.67;2.08;;;0.40;99.90;;;;;;4976418;28;20281;-64
2023/01/26 09:01:07;;;;;;;2.72;1.83;;;0.40;99.90;;;;;;4990863;28;20276;-64
2023/01/26 09:03:35;;;;;;;2.05;1.33;;;0.40;99.90;;;;;;4991568;28;20222;-64
2023/01/26 09:06:04;;;;;;;1.52;1.33;;;0.40;99.90;;;;;;4991616;28;20202;-64
2023/01/26 09:08:32;;;;;;;2.95;1.77;;;0.30;99.90;;;;;;4991539;28;20742;-64
2023/01/26 09:11:02;;;;;;;2.55;1.77;;;0.20;99.90;;;;;;4990527;28;20198;-64
2023/01/26 09:13:30;;;;;;;2.35;1.60;;;0.20;99.90;;;;;;4990943;28;20309;-64
2023/01/26 09:15:58;;;;;;;3.30;2.60;;;0.20;99.90;;;;;;4991497;28;20206;-65
2023/01/26 09:18:25;;;;;;;2.22;1.88;;;0.20;99.90;;;;;;4991515;28;20337;-64
2023/01/26 09:20:54;;;;;;;2.88;1.80;;;0.10;99.90;;;;;;4990928;28;20208;-64
2023/01/26 09:23:22;;;;;;;1.90;1.70;;;0.10;99.90;;;;;;4991125;28;20214;-65
2023/01/26 09:25:53;;;;;;;1.30;1.13;;;0.00;99.90;;;;;;4991033;28;20281;-64
2023/01/26 09:28:23;;;;;;;2.28;1.70;;;0.00;99.90;;;;;;4994806;28;20190;-64
2023/01/26 09:30:51;;;;;;;1.77;1.25;;;0.00;99.90;;;;;;4994027;28;20281;-64
2023/01/26 09:33:20;;;;;;;2.65;1.63;;;-0.10;99.90;;;;;;4994656;28;20218;-64
2023/01/26 09:35:48;;;;;;;2.78;1.98;;;-0.10;99.90;;;;;;4994849;28;20304;-64
2023/01/26 09:38:16;;;;;;;1.92;1.40;;;-0.10;99.90;;;;;;4995420;28;20567;-65
2023/01/26 09:40:53;;;;;;;4.45;2.67;;;-0.10;99.90;;;;;;4993628;28;20293;-65
2023/01/26 09:43:28;;;;;;;2.85;1.67;;;-0.10;99.90;;;;;;4994331;28;20329;-63
2023/01/26 09:46:03;;;;;;;2.47;1.45;;;-0.10;99.90;;;;;;4994630;28;20609;-64
2023/01/26 09:48:40;;;;;;;4.10;3.70;;;-0.10;99.90;;;;;;4994856;28;20198;-64
2023/01/26 09:51:14;;;;;;;1.25;0.98;;;-0.20;99.90;;;;;;4993804;28;20332;-64
2023/01/26 09:53:47;;;;;;;2.20;1.42;;;-0.20;99.90;;;;;;4993992;28;20305;-64
2023/01/26 09:56:18;;;;;;;1.38;1.02;;;-0.20;99.90;;;;;;4994332;28;20260;-63
2023/01/26 09:58:54;;;;;;;3.55;1.65;;;-0.10;99.90;;;;;;4994223;28;20273;-63
2023/01/26 10:01:29;;;;;;;3.05;1.85;;;-0.10;99.90;;;;;;4993482;28;20288;-64
2023/01/26 10:04:04;;;;;;;1.55;1.23;;;0.00;99.90;;;;;;4994226;28;20221;-64
2023/01/26 10:06:33;;;;;;;1.90;1.15;;;0.00;99.90;;;;;;4994277;28;20641;-64
2023/01/26 10:09:06;;;;;;;1.85;1.63;;;0.00;99.90;;;;;;4994014;28;20198;-64
2023/01/26 10:11:38;;;;;;;2.17;1.65;;;0.10;99.90;;;;;;4993312;28;20208;-64
2023/01/26 10:14:14;;;;;;;2.20;1.45;;;0.10;99.90;;;;;;4993671;28;21019;-64
2023/01/26 10:16:45;;;;;;;1.20;1.10;;;0.20;99.90;;;;;;4994209;28;20264;-63
2023/01/26 10:19:20;;;;;;;1.20;1.10;;;0.20;99.90;;;;;;4994319;28;20186;-64
2023/01/26 10:21:51;;;;;;;1.45;1.13;;;0.30;99.90;;;;;;4993175;28;20697;-64
2023/01/26 10:24:22;;;;;;;2.72;1.95;;;0.40;99.90;;;;;;4993477;28;20226;-64
2023/01/26 10:26:56;;;;;;;1.63;1.25;;;0.40;99.90;;;;;;4993967;28;20209;-64
2023/01/26 10:29:25;;;;;;;2.55;2.15;;;0.50;99.90;;;;;;4990842;28;20206;-64
2023/01/26 10:31:54;;;;;;;1.88;1.75;;;0.40;99.90;;;;;;4993068;28;20331;-64
2023/01/26 10:34:24;;;;;;;1.90;1.52;;;0.60;99.90;;;;;;4985537;28;20779;-64
2023/01/26 10:37:00;;;;;;;1.98;1.55;;;0.60;99.90;;;;;;4993861;28;20285;-64
2023/01/26 10:39:28;;;;;;;1.55;1.08;;;0.50;99.90;;;;;;4992557;28;20252;-64
2023/01/26 10:41:58;;;;;;;1.35;1.25;;;0.60;99.90;;;;;;4993158;28;20667;-64
2023/01/26 10:44:32;;;;;;;1.20;1.08;;;0.60;99.90;;;;;;4974198;28;20230;-64
2023/01/26 10:47:06;;;;;;;1.50;1.40;;;0.70;99.90;;;;;;4974187;28;20194;-64
2023/01/26 10:49:34;;;;;;;1.30;1.05;;;0.80;99.90;;;;;;4973438;28;20202;-64
2023/01/26 10:52:08;;;;;;;2.20;1.85;;;0.90;99.90;;;;;;4973732;28;20202;-64
2023/01/26 10:54:37;;;;;;;1.25;1.15;;;1.00;99.90;;;;;;4973694;28;20217;-64
2023/01/26 10:57:10;;;;;;;1.48;1.30;;;1.00;99.90;;;;;;4973750;28;20219;-64
2023/01/26 10:59:44;;;;;;;1.40;1.02;;;0.90;99.90;;;;;;4969813;28;20238;-64
2023/01/26 11:02:26;;;;;;;2.20;1.30;;;0.90;99.90;;;;;;4962212;28;20227;-65
2023/01/26 11:05:20;;;;;;;1.10;1.00;;;0.90;99.90;;;;;;4954565;28;20199;-64
2023/01/26 11:07:50;;;;;;;1.50;1.25;;;1.00;99.90;;;;;;4950964;28;20248;-64
2023/01/26 11:10:25;;;;;;;1.42;1.30;;;1.10;99.90;;;;;;4972994;28;20623;-64
2023/01/26 11:13:15;;;;;;;1.40;1.23;;;1.00;99.90;;;;;;4973345;28;20699;-64
2023/01/26 11:15:47;;;;;;;1.75;1.02;;;1.00;99.90;;;;;;4973284;28;20222;-64
2023/01/26 11:18:32;;;;;;;1.55;1.25;;;1.10;99.90;;;;;;4973625;28;20207;-64
2023/01/26 11:21:03;;;;;;;1.60;1.17;;;1.00;99.90;;;;;;4972906;28;20197;-64
2023/01/26 11:23:49;;;;;;;1.52;1.08;;;1.00;99.90;;;;;;4972815;28;20230;-64
2023/01/26 11:26:53;;;;;;;2.53;1.58;;;1.10;99.90;;;;;;4973448;28;20194;-64
2023/01/26 11:29:39;;;;;;;1.58;1.20;;;1.10;99.90;;;;;;4972721;28;20199;-64
2023/01/26 11:32:17;;;;;;;2.08;1.48;;;1.20;99.90;;;;;;4965271;28;20309;-64
2023/01/26 11:35:05;;;;;;;2.05;1.52;;;1.30;99.90;;;;;;4973240;28;20209;-64
2023/01/26 11:37:56;;;;;;;1.60;1.50;;;1.50;99.90;;;;;;4972801;28;20242;-65
2023/01/26 11:40:31;;;;;;;1.35;1.20;;;1.40;99.90;;;;;;4972544;28;20230;-64
2023/01/26 11:43:25;;;;;;;2.17;1.65;;;1.40;99.90;;;;;;4980453;28;20708;-64
2023/01/26 11:46:08;;;;;;;1.33;1.23;;;1.50;99.90;;;;;;4992164;28;20197;-64
2023/01/26 11:48:47;;;;;;;2.05;1.70;;;1.40;99.90;;;;;;4992518;28;20665;-64
2023/01/26 11:51:24;;;;;;;1.42;1.13;;;1.40;99.90;;;;;;4991741;28;20634;-64
2023/01/26 11:54:15;;;;;;;2.50;1.70;;;1.30;99.90;;;;;;4991734;28;20221;-64
2023/01/26 11:56:52;;;;;;;1.50;1.40;;;1.30;99.90;;;;;;4992200;28;20581;-64
2023/01/26 11:59:26;;;;;;;2.28;1.75;;;1.30;99.90;;;;;;4991523;28;20280;-64
2023/01/26 12:01:59;;;;;;;2.60;2.20;;;1.20;99.90;;;;;;4991505;28;20248;-64
2023/01/26 12:04:33;;;;;;;1.45;1.13;;;1.20;99.90;;;;;;4992035;28;20198;-64
2023/01/26 12:07:06;;;;;;;1.55;1.45;;;1.30;99.90;;;;;;4991776;28;20280;-63
2023/01/26 12:09:41;;;;;;;2.45;2.20;;;1.20;99.90;;;;;;4991763;28;20198;-64
2023/01/26 12:12:14;;;;;;;2.95;1.98;;;1.20;99.90;;;;;;4992124;28;20221;-64
2023/01/26 12:14:47;;;;;;;1.95;1.77;;;1.20;99.90;;;;;;4992133;28;20276;-64
2023/01/26 12:17:32;;;;;;;2.15;1.98;;;1.10;99.90;;;;;;4992583;28;20611;-64
2023/01/26 12:20:23;;;;;;;1.25;1.10;;;1.00;99.90;;;;;;4992677;28;20202;-64
2023/01/26 12:22:58;;;;;;;1.55;1.05;;;1.00;99.90;;;;;;4992951;28;20222;-65
2023/01/26 12:25:31;;;;;;;1.23;1.10;;;1.10;99.90;;;;;;4991945;28;20281;-64
2023/01/26 12:28:10;;;;;;;1.42;0.95;;;1.10;99.90;;;;;;4992020;28;20208;-65
2023/01/26 12:30:47;;;;;;;1.08;0.80;;;1.00;99.90;;;;;;4990486;28;20293;-66
2023/01/26 12:33:15;;;;;;;1.08;0.98;;;1.10;99.90;;;;;;4991937;28;20240;-66
2023/01/26 12:36:12;;;;;;;2.25;1.15;;;1.00;99.90;;;;;;4991979;28;20245;-64
2023/01/26 12:38:50;;;;;;;2.15;1.10;;;0.90;99.90;;;;;;4991651;28;20289;-64
2023/01/26 12:41:31;;;;;;;2.13;1.45;;;1.00;99.90;;;;;;4991024;28;20572;-64
2023/01/26 12:44:10;;;;;;;1.55;1.20;;;0.90;99.90;;;;;;4991325;28;20679;-65
2023/01/26 12:46:42;;;;;;;1.80;1.65;;;0.90;99.90;;;;;;4991592;28;20292;-64
2023/01/26 12:49:17;;;;;;;2.78;1.73;;;0.90;99.90;;;;;;4991921;28;20206;-64
2023/01/26 12:51:51;;;;;;;1.58;1.48;;;0.80;99.90;;;;;;4990784;28;20198;-64
2023/01/26 12:54:27;;;;;;;5.70;2.30;;;0.70;99.90;;;;;;4991655;28;20205;-64
2023/01/26 12:56:59;;;;;;;1.40;1.30;;;0.70;99.90;;;;;;4991616;28;20296;-64
2023/01/26 12:59:31;;;;;;;1.88;1.15;;;0.70;99.90;;;;;;4989627;28;20631;-63
2023/01/26 13:02:28;;;;;;;2.28;2.08;;;0.80;99.90;;;;;;4990617;28;20754;-64
2023/01/26 13:04:58;;;;;;;3.42;1.25;;;0.80;99.90;;;;;;4995341;28;20663;-65
2023/01/26 13:07:30;;;;;;;1.17;1.02;;;0.90;99.90;;;;;;4995199;28;20617;-64
2023/01/26 13:10:19;;;;;;;1.40;1.30;;;0.90;99.90;;;;;;4994493;28;20206;-64
2023/01/26 13:12:48;;;;;;;0.80;0.80;;;0.90;99.90;;;;;;4995149;28;20244;-64
2023/01/26 13:15:18;;;;;;;1.23;1.10;;;0.90;99.90;;;;;;4995110;28;20198;-64
2023/01/26 13:17:55;;;;;;;1.50;1.40;;;1.00;99.90;;;;;;4995107;28;20655;-64
2023/01/26 13:20:43;;;;;;;1.83;1.30;;;1.00;99.90;;;;;;4994518;28;20249;-64
2023/01/26 13:23:40;;;;;;;3.50;1.20;;;1.00;99.90;;;;;;4994851;28;20253;-64
2023/01/26 13:26:50;;;;;;;1.23;1.05;;;1.10;99.90;;;;;;4995116;28;20241;-64
2023/01/26 13:29:31;;;;;;;1.77;1.30;;;1.10;99.90;;;;;;4994231;28;20281;-64
2023/01/26 13:32:02;;;;;;;1.80;1.63;;;1.10;99.90;;;;;;4989750;28;20667;-64
2023/01/26 13:34:36;;;;;;;1.95;1.10;;;1.10;99.90;;;;;;4994692;28;20222;-64
2023/01/26 13:37:10;;;;;;;2.47;1.27;;;1.10;99.90;;;;;;4994808;28;20293;-64
2023/01/26 13:39:44;;;;;;;2.72;2.10;;;1.10;99.90;;;;;;4993849;28;20198;-65
2023/01/26 13:42:18;;;;;;;3.47;1.95;;;1.20;99.90;;;;;;4994682;28;20249;-66
2023/01/26 13:44:54;;;;;;;3.60;2.47;;;1.20;99.90;;;;;;5021067;22;20262;-64
2023/01/26 13:47:28;;;;;;;2.47;2.15;;;1.30;99.90;;;;;;5012142;28;20205;-63
2023/01/26 13:49:55;;;;;;;2.10;1.85;;;1.30;99.90;;;;;;5013602;28;20296;-63
2023/01/26 13:52:25;;;;;;;3.05;2.75;;;1.30;99.90;;;;;;5014027;28;20205;-64
2023/01/26 13:54:56;;;;;;;2.20;1.58;;;1.40;99.90;;;;;;5013791;28;20218;-64
2023/01/26 13:57:26;;;;;;;2.60;1.83;;;1.30;99.90;;;;;;5013660;28;20241;-63
2023/01/26 13:59:57;;;;;;;2.70;1.50;;;1.30;99.90;;;;;;5006841;28;20209;-63
2023/01/26 14:02:27;;;;;;;3.50;1.30;;;1.20;99.90;;;;;;4995082;28;20233;-64
2023/01/26 14:04:57;;;;;;;2.10;1.50;;;1.20;99.90;;;;;;4994245;28;20735;-63
2023/01/26 14:07:28;;;;;;;2.88;1.52;;;1.10;99.90;;;;;;4994122;28;20198;-64
2023/01/26 14:09:59;;;;;;;1.52;1.42;;;1.10;99.90;;;;;;4993445;28;20280;-64